Costa Romantica — IBCR — position and weather

sailwx.info

Track history (hours):
 
Tides and Currents Weather Stations Pressure Air Temp Water Temp Dewpoint Dewpoint Depression Visibility Wind Speed Wind Dir Waves Ship Positions

Costa Romantica

Last reported at 2018-Aug-10 12:59 UTC. Time now 2018-Aug-14 15:20 UTC.
Position N 34°59' E 129°26'.

Length 221 m; draft 7.8 m.

Type: Ship. MMSI: 247817000.

Date/timePositionNaut miles runAvg speedWind from/ knotsBaromVisibWave heightAir tempDewpointWater temp
2018-Aug-10 12:59N 34°59' E 129°26'713.8
2018-Aug-10 12:30N 35°01' E 129°18'612.9
2018-Aug-10 12:00N 35°03' E 129°11'5 9.5
2018-Aug-10 11:30N 35°05' E 129°06'3 5.7
2018-Aug-10 11:00N 35°07' E 129°03'0 0.0
2018-Aug-10 10:30N 35°07' E 129°03'0 0.0
2018-Aug-10 10:00N 35°07' E 129°03'0 0.0
2018-Aug-10 09:30N 35°07' E 129°03'0 0.0
2018-Aug-10 09:00N 35°07' E 129°03'0 0.0
2018-Aug-10 08:30N 35°07' E 129°03'0 0.0
2018-Aug-10 08:00N 35°07' E 129°03'0 0.0
2018-Aug-10 07:30N 35°07' E 129°03'0 0.0
2018-Aug-10 07:00N 35°07' E 129°03'0 0.0
2018-Aug-10 06:30N 35°07' E 129°03'0 0.0
2018-Aug-10 06:00N 35°07' E 129°03'0 0.0
2018-Aug-10 05:30N 35°07' E 129°03'0 0.0
2018-Aug-10 05:00N 35°07' E 129°03'0 0.0
2018-Aug-10 04:30N 35°07' E 129°03'0 0.0
2018-Aug-10 04:00N 35°07' E 129°03'0 0.0
2018-Aug-10 03:30N 35°07' E 129°03'0 0.0
2018-Aug-10 03:00N 35°07' E 129°03'0 0.0
2018-Aug-10 02:30N 35°07' E 129°03'0 0.0
2018-Aug-10 02:00N 35°07' E 129°03'0 0.0
2018-Aug-10 01:30N 35°07' E 129°03'0 0.0
2018-Aug-10 01:01N 35°07' E 129°03'2 3.2
2018-Aug-10 00:30N 35°06' E 129°05'611.1
2018-Aug-10 00:00N 35°05' E 129°11'  
2018-Aug-05 15:12N 35°01' E 129°22'314.5
2018-Aug-05 14:59N 35°02' E 129°18'1212.1
2018-Aug-05 14:01N 35°06' E 129°04'2 2.8
2018-Aug-05 13:28N 35°07' E 129°03'0 0.0
2018-Aug-05 12:58N 35°07' E 129°03'0 0.0
2018-Aug-05 12:28N 35°07' E 129°03'0 0.0
2018-Aug-05 11:58N 35°07' E 129°03'0 0.0
2018-Aug-05 11:28N 35°07' E 129°03'0 0.0
2018-Aug-05 10:58N 35°07' E 129°03'0 0.0
2018-Aug-05 10:28N 35°07' E 129°03'0 0.0
2018-Aug-05 09:58N 35°07' E 129°03'0 0.0
2018-Aug-05 09:28N 35°07' E 129°03'0 0.0
2018-Aug-05 08:58N 35°07' E 129°03'0 0.0
2018-Aug-05 08:28N 35°07' E 129°03'0 0.0
2018-Aug-05 07:58N 35°07' E 129°03'0 0.0
2018-Aug-05 07:25N 35°07' E 129°03'0 0.0
2018-Aug-05 06:58N 35°07' E 129°03'0 0.5
2018-Aug-05 06:30N 35°07' E 129°03'5 9.7
2018-Aug-05 06:00N 35°04' E 129°09'713.8
2018-Aug-05 05:28N 35°06' E 129°17'  
Track history (hours):
 
Tides and Currents Weather Stations Pressure Air Temp Water Temp Dewpoint Dewpoint Depression Visibility Wind Speed Wind Dir Waves Ship Positions

Costa Romantica

Last reported at 2018-Aug-10 12:59 UTC. Time now 2018-Aug-14 15:20 UTC.
Position N 34°59' E 129°26'.

Length 221 m; draft 7.8 m.

Type: Ship. MMSI: 247817000.

Date/timePositionNaut miles runAvg speedWind from/ knotsBaromVisibWave heightAir tempDewpointWater temp
2018-Aug-10 12:59N 34°59' E 129°26'713.8
2018-Aug-10 12:30N 35°01' E 129°18'612.9
2018-Aug-10 12:00N 35°03' E 129°11'5 9.5
2018-Aug-10 11:30N 35°05' E 129°06'3 5.7
2018-Aug-10 11:00N 35°07' E 129°03'0 0.0
2018-Aug-10 10:30N 35°07' E 129°03'0 0.0
2018-Aug-10 10:00N 35°07' E 129°03'0 0.0
2018-Aug-10 09:30N 35°07' E 129°03'0 0.0
2018-Aug-10 09:00N 35°07' E 129°03'0 0.0
2018-Aug-10 08:30N 35°07' E 129°03'0 0.0
2018-Aug-10 08:00N 35°07' E 129°03'0 0.0
2018-Aug-10 07:30N 35°07' E 129°03'0 0.0
2018-Aug-10 07:00N 35°07' E 129°03'0 0.0
2018-Aug-10 06:30N 35°07' E 129°03'0 0.0
2018-Aug-10 06:00N 35°07' E 129°03'0 0.0
2018-Aug-10 05:30N 35°07' E 129°03'0 0.0
2018-Aug-10 05:00N 35°07' E 129°03'0 0.0
2018-Aug-10 04:30N 35°07' E 129°03'0 0.0
2018-Aug-10 04:00N 35°07' E 129°03'0 0.0
2018-Aug-10 03:30N 35°07' E 129°03'0 0.0
2018-Aug-10 03:00N 35°07' E 129°03'0 0.0
2018-Aug-10 02:30N 35°07' E 129°03'0 0.0
2018-Aug-10 02:00N 35°07' E 129°03'0 0.0
2018-Aug-10 01:30N 35°07' E 129°03'0 0.0
2018-Aug-10 01:01N 35°07' E 129°03'2 3.2
2018-Aug-10 00:30N 35°06' E 129°05'611.1
2018-Aug-10 00:00N 35°05' E 129°11'  
2018-Aug-05 15:12N 35°01' E 129°22'314.5
2018-Aug-05 14:59N 35°02' E 129°18'1212.1
2018-Aug-05 14:01N 35°06' E 129°04'2 2.8
2018-Aug-05 13:28N 35°07' E 129°03'0 0.0
2018-Aug-05 12:58N 35°07' E 129°03'0 0.0
2018-Aug-05 12:28N 35°07' E 129°03'0 0.0
2018-Aug-05 11:58N 35°07' E 129°03'0 0.0
2018-Aug-05 11:28N 35°07' E 129°03'0 0.0
2018-Aug-05 10:58N 35°07' E 129°03'0 0.0
2018-Aug-05 10:28N 35°07' E 129°03'0 0.0
2018-Aug-05 09:58N 35°07' E 129°03'0 0.0
2018-Aug-05 09:28N 35°07' E 129°03'0 0.0
2018-Aug-05 08:58N 35°07' E 129°03'0 0.0
2018-Aug-05 08:28N 35°07' E 129°03'0 0.0
2018-Aug-05 07:58N 35°07' E 129°03'0 0.0
2018-Aug-05 07:25N 35°07' E 129°03'0 0.0
2018-Aug-05 06:58N 35°07' E 129°03'0 0.5
2018-Aug-05 06:30N 35°07' E 129°03'5 9.7
2018-Aug-05 06:00N 35°04' E 129°09'713.8
2018-Aug-05 05:28N 35°06' E 129°17'  

Dump ship's entire track history